| time (UTC) | temp C | wind direction | speed KPH | gust KPH | rain 1hr cm | rain 24hr cm | rain mn cm | humidity % | barometer mb |
| 20260510204235 | 27 | 348 | 1.6 | 3.2 | 0.00 | 0.00 | 0.00 | 67 | 1015.3 |
| 20260510203731 | 26 | 325 | 3.2 | 3.2 | 0.00 | 0.00 | 0.00 | 68 | 1015.6 |
| 20260510203229 | 26 | 338 | 9.7 | 11.3 | 0.00 | 0.00 | 0.00 | 69 | 1015.4 |
| 20260510202729 | 27 | 332 | 3.2 | 3.2 | 0.00 | 0.00 | 0.00 | 66 | 1015.3 |
| 20260510202224 | 27 | 340 | 3.2 | 3.2 | 0.00 | 0.00 | 0.00 | 66 | 1015.4 |
| 20260510201722 | 27 | 253 | 4.8 | 4.8 | 0.00 | 0.00 | 0.00 | 68 | 1015.5 |
| 20260510201218 | 27 | 322 | 4.8 | 4.8 | 0.00 | 0.00 | 0.00 | 63 | 1015.6 |
| 20260510200714 | 27 | 154 | 8.0 | 9.7 | 0.00 | 0.00 | 0.00 | 63 | 1015.5 |
| 20260510200213 | 27 | 4 | 3.2 | 3.2 | 0.00 | 0.00 | 0.00 | 65 | 1015.6 |
| 20260510195709 | 27 | 261 | 6.4 | 8.0 | 0.00 | 0.00 | 0.00 | 67 | 1015.3 |
| 20260510195206 | 27 | 310 | 1.6 | 3.2 | 0.00 | 0.00 | 0.00 | 66 | 1015.5 |
| 20260510194705 | 27 | 299 | 4.8 | 4.8 | 0.00 | 0.00 | 0.00 | 64 | 1015.5 |
| 20260510194202 | 26 | 322 | 1.6 | 1.6 | 0.00 | 0.00 | 0.00 | 67 | 1015.5 |
| 20260510193657 | 27 | 291 | 8.0 | 9.7 | 0.00 | 0.00 | 0.00 | 66 | 1015.4 |
| 20260510193153 | 27 | 302 | 4.8 | 9.7 | 0.00 | 0.00 | 0.00 | 66 | 1015.7 |
| 20260510192648 | 27 | 330 | 4.8 | 4.8 | 0.00 | 0.00 | 0.00 | 67 | 1015.6 |
| 20260510192144 | 26 | 5 | 1.6 | 1.6 | 0.00 | 0.00 | 0.00 | 66 | 1015.7 |
| 20260510191640 | 26 | 335 | 4.8 | 4.8 | 0.00 | 0.00 | 0.00 | 69 | 1015.6 |
| 20260510191137 | 25 | 12 | 1.6 | 3.2 | 0.00 | 0.00 | 0.00 | 70 | 1015.7 |
| 20260510190634 | 25 | 338 | 8.0 | 8.0 | 0.00 | 0.00 | 0.00 | 70 | 1015.6 |
| 20260510190132 | 25 | 38 | 1.6 | 1.6 | 0.00 | 0.00 | 0.00 | 69 | 1015.8 |
| 20260510185628 | 26 | 119 | 3.2 | 3.2 | 0.00 | 0.00 | 0.00 | 68 | 1016.1 |
| 20260510185126 | 26 | 330 | 3.2 | 4.8 | 0.00 | 0.00 | 0.00 | 69 | 1016.0 |
| 20260510184623 | 26 | 322 | 1.6 | 3.2 | 0.00 | 0.00 | 0.00 | 68 | 1016.0 |
| 20260510184119 | 25 | 94 | 1.6 | 1.6 | 0.00 | 0.00 | 0.00 | 71 | 1016.0 |
| 20260510183614 | 25 | 308 | 4.8 | 8.0 | 0.00 | 0.00 | 0.00 | 73 | 1016.0 |
| 20260510183109 | 25 | 303 | 8.0 | 9.7 | 0.00 | 0.00 | 0.00 | 71 | 1016.2 |
| 20260510182606 | 25 | 325 | 8.0 | 9.7 | 0.00 | 0.00 | 0.00 | 73 | 1016.3 |
| 20260510182102 | 25 | 288 | 4.8 | 4.8 | 0.00 | 0.00 | 0.00 | 73 | 1016.2 |
| 20260510181559 | 25 | 36 | 4.8 | 8.0 | 0.00 | 0.00 | 0.00 | 73 | 1016.3 |
| 20260510181055 | 25 | 8 | 6.4 | 9.7 | 0.00 | 0.00 | 0.00 | 75 | 1016.2 |
| 20260510180552 | 25 | 11 | 8.0 | 11.3 | 0.00 | 0.00 | 0.00 | 75 | 1016.7 |
| 20260510180051 | 25 | 36 | 3.2 | 3.2 | 0.00 | 0.00 | 0.00 | 73 | 1016.7 |
| 20260510175550 | 25 | 353 | 3.2 | 3.2 | 0.00 | 0.00 | 0.00 | 74 | 1017.1 |
| 20260510175046 | 25 | 339 | 3.2 | 3.2 | 0.00 | 0.00 | 0.00 | 74 | 1016.7 |
| 20260510174545 | 25 | 335 | 8.0 | 8.0 | 0.00 | 0.00 | 0.00 | 75 | 1017.0 |
| 20260510174041 | 25 | 14 | 6.4 | 8.0 | 0.00 | 0.00 | 0.00 | 75 | 1017.1 |
| 20260510173536 | 25 | 339 | 8.0 | 11.3 | 0.00 | 0.00 | 0.00 | 75 | 1017.0 |
| 20260510173034 | 25 | 347 | 11.3 | 12.9 | 0.00 | 0.00 | 0.00 | 75 | 1017.2 |
| 20260510172530 | 24 | 305 | 11.3 | 12.9 | 0.00 | 0.00 | 0.00 | 75 | 1017.3 |
| 20260510172027 | 24 | 319 | 4.8 | 4.8 | 0.00 | 0.00 | 0.00 | 76 | 1017.2 |
| 20260510171523 | 24 | 357 | 3.2 | 3.2 | 0.00 | 0.00 | 0.00 | 76 | 1017.0 |
| 20260510171020 | 24 | 326 | 4.8 | 4.8 | 0.00 | 0.00 | 0.00 | 73 | 1017.1 |
| 20260510170517 | 25 | 308 | 8.0 | 8.0 | 0.00 | 0.00 | 0.00 | 72 | 1017.1 |
| 20260510170013 | 25 | 62 | 3.2 | 4.8 | 0.00 | 0.00 | 0.00 | 71 | 1017.3 |
| 20260510165509 | 24 | 13 | 3.2 | 4.8 | 0.00 | 0.00 | 0.00 | 75 | 1016.8 |
| 20260510165005 | 25 | 314 | 9.7 | 11.3 | 0.00 | 0.00 | 0.00 | 74 | 1017.2 |
| 20260510164502 | 25 | 21 | 6.4 | 9.7 | 0.00 | 0.00 | 0.00 | 73 | 1017.4 |
| 20260510163958 | 25 | 22 | 8.0 | 9.7 | 0.00 | 0.00 | 0.00 | 72 | 1017.1 |
| 20260510163454 | 25 | 351 | 1.6 | 3.2 | 0.00 | 0.00 | 0.00 | 73 | 1017.1 |
| 20260510162949 | 25 | 12 | 3.2 | 4.8 | 0.00 | 0.00 | 0.00 | 75 | 1017.3 |
| 20260510162446 | 24 | 334 | 6.4 | 8.0 | 0.00 | 0.00 | 0.00 | 80 | 1017.3 |
| 20260510161942 | 23 | 297 | 8.0 | 9.7 | 0.00 | 0.00 | 0.00 | 75 | 1017.3 |
| 20260510161438 | 25 | 319 | 9.7 | 12.9 | 0.00 | 0.00 | 0.00 | 74 | 1017.3 |
| 20260510160936 | 25 | 270 | 4.8 | 4.8 | 0.00 | 0.00 | 0.00 | 76 | 1017.6 |
| 20260510160432 | 24 | 328 | 4.8 | 8.0 | 0.00 | 0.00 | 0.00 | 74 | 1017.2 |
| 20260510155931 | 23 | 284 | 6.4 | 8.0 | 0.00 | 0.00 | 0.00 | 76 | 1017.3 |
| 20260510155428 | 24 | 349 | 6.4 | 9.7 | 0.00 | 0.00 | 0.00 | 76 | 1017.4 |
| 20260510154924 | 24 | 15 | 3.2 | 3.2 | 0.00 | 0.00 | 0.00 | 76 | 1017.3 |
| 20260510154420 | 24 | 327 | 6.4 | 9.7 | 0.00 | 0.00 | 0.00 | 76 | 1017.5 |
| 20260510153914 | 24 | 7 | 4.8 | 8.0 | 0.00 | 0.00 | 0.00 | 77 | 1017.3 |
| 20260510153411 | 23 | 6 | 4.8 | 4.8 | 0.00 | 0.00 | 0.00 | 78 | 1017.5 |
| 20260510152908 | 23 | 346 | 6.4 | 8.0 | 0.00 | 0.00 | 0.00 | 79 | 1017.4 |
| 20260510152405 | 23 | 19 | 4.8 | 4.8 | 0.00 | 0.00 | 0.00 | 80 | 1017.2 |
| 20260510151901 | 23 | 321 | 6.4 | 8.0 | 0.00 | 0.00 | 0.00 | 78 | 1017.5 |
| 20260510151359 | 23 | 286 | 4.8 | 4.8 | 0.00 | 0.00 | 0.00 | 80 | 1017.4 |
| 20260510150855 | 23 | 9 | 3.2 | 4.8 | 0.00 | 0.00 | 0.00 | 81 | 1017.5 |
| 20260510150350 | 22 | 89 | 1.6 | 1.6 | 0.00 | 0.00 | 0.00 | 80 | 1017.4 |
| 20260510145847 | 22 | 341 | 4.8 | 4.8 | 0.00 | 0.00 | 0.00 | 82 | 1017.4 |
| 20260510145343 | 23 | 13 | 1.6 | 1.6 | 0.00 | 0.00 | 0.00 | 81 | 1017.2 |
| 20260510144840 | 22 | 82 | 1.6 | 1.6 | 0.00 | 0.00 | 0.00 | 85 | 1017.2 |
| 20260510144337 | 22 | 343 | 4.8 | 4.8 | 0.00 | 0.00 | 0.00 | 86 | 1017.2 |
| 20260510143836 | 21 | 319 | 1.6 | 3.2 | 0.00 | 0.00 | 0.00 | 88 | 1017.2 |
| 20260510143333 | 21 | 26 | 0.0 | 1.6 | 0.00 | 0.00 | 0.00 | 89 | 1017.2 |
| 20260510142830 | 21 | 120 | 1.6 | 1.6 | 0.00 | 0.00 | 0.00 | 89 | 1017.1 |
| 20260510142326 | 20 | 39 | 0.0 | 0.0 | 0.00 | 0.00 | 0.00 | 89 | 1017.3 |
| 20260510141823 | 20 | 5 | 0.0 | 1.6 | 0.00 | 0.00 | 0.00 | 89 | 1017.3 |
| 20260510141322 | 20 | 355 | 3.2 | 3.2 | 0.00 | 0.00 | 0.00 | 89 | 1017.1 |
| 20260510140819 | 20 | 287 | 1.6 | 3.2 | 0.00 | 0.00 | 0.00 | 89 | 1017.0 |
| 20260510140315 | 20 | 359 | 1.6 | 1.6 | 0.00 | 0.00 | 0.00 | 89 | 1017.1 |
| 20260510135813 | 20 | 26 | 0.0 | 0.0 | 0.00 | 0.00 | 0.00 | 89 | 1017.0 |
| 20260510135309 | 20 | 1 | 1.6 | 1.6 | 0.00 | 0.00 | 0.00 | 89 | 1017.0 |
| 20260510134807 | 19 | 30 | 0.0 | 1.6 | 0.00 | 0.00 | 0.00 | 89 | 1017.2 |
| 20260510134304 | 19 | 37 | 1.6 | 1.6 | 0.00 | 0.00 | 0.00 | 89 | 1017.1 |
| 20260510133759 | 19 | 27 | 1.6 | 1.6 | 0.00 | 0.00 | 0.00 | 89 | 1016.9 |
| 20260510133256 | 19 | 28 | 0.0 | 0.0 | 0.00 | 0.00 | 0.00 | 89 | 1016.9 |
| 20260510132751 | 19 | 337 | 1.6 | 1.6 | 0.00 | 0.00 | 0.00 | 89 | 1017.1 |
| 20260510132250 | 19 | 338 | 3.2 | 3.2 | 0.00 | 0.00 | 0.00 | 89 | 1016.9 |
| 20260510131746 | 18 | 23 | 1.6 | 1.6 | 0.00 | 0.00 | 0.00 | 89 | 1016.6 |
| 20260510131244 | 18 | 3 | 1.6 | 1.6 | 0.00 | 0.00 | 0.00 | 89 | 1016.6 |
| 20260510130740 | 18 | 23 | 0.0 | 0.0 | 0.00 | 0.00 | 0.00 | 89 | 1016.5 |
| 20260510130237 | 18 | 14 | 0.0 | 0.0 | 0.00 | 0.00 | 0.00 | 89 | 1016.8 |
| 20260510125733 | 18 | 12 | 0.0 | 0.0 | 0.00 | 0.00 | 0.00 | 89 | 1016.6 |
| 20260510125229 | 18 | 28 | 0.0 | 0.0 | 0.00 | 0.00 | 0.00 | 89 | 1016.4 |
| 20260510124726 | 18 | 20 | 0.0 | 0.0 | 0.00 | 0.00 | 0.00 | 89 | 1016.3 |
| 20260510124224 | 18 | 56 | 0.0 | 0.0 | 0.00 | 0.00 | 0.00 | 89 | 1016.3 |
| 20260510123719 | 17 | 61 | 0.0 | 0.0 | 0.00 | 0.00 | 0.00 | 89 | 1016.6 |
| 20260510123215 | 17 | 55 | 0.0 | 0.0 | 0.00 | 0.00 | 0.00 | 89 | 1016.3 |
| 20260510122712 | 17 | 51 | 0.0 | 0.0 | 0.00 | 0.00 | 0.00 | 89 | 1016.2 |
| 20260510122208 | 17 | 38 | 0.0 | 0.0 | 0.00 | 0.00 | 0.00 | 89 | 1016.3 |
| 20260510121704 | 17 | 20 | 0.0 | 0.0 | 0.00 | 0.00 | 0.00 | 89 | 1016.3 |
| 20260510121202 | 17 | 2 | 0.0 | 0.0 | 0.00 | 0.00 | 0.00 | 89 | 1016.3 |
| 20260510120659 | 17 | 358 | 0.0 | 0.0 | 0.00 | 0.00 | 0.00 | 89 | 1016.1 |
| 20260510120156 | 17 | 30 | 0.0 | 0.0 | 0.00 | 0.00 | 0.00 | 89 | 1016.1 |
| 20260510115651 | 17 | 28 | 0.0 | 0.0 | 0.00 | 0.00 | 0.00 | 89 | 1016.2 |
| 20260510115150 | 17 | 33 | 0.0 | 0.0 | 0.00 | 0.00 | 0.00 | 89 | 1015.8 |
| 20260510114645 | 16 | 41 | 0.0 | 0.0 | 0.00 | 0.00 | 0.00 | 89 | 1015.8 |
| 20260510114142 | 16 | 38 | 0.0 | 0.0 | 0.00 | 0.00 | 0.00 | 89 | 1015.7 |
| 20260510113637 | 16 | 36 | 0.0 | 0.0 | 0.00 | 0.00 | 0.00 | 89 | 1015.8 |
| 20260510113134 | 16 | 30 | 0.0 | 0.0 | 0.00 | 0.00 | 0.00 | 89 | 1015.5 |
| 20260510112631 | 16 | 59 | 0.0 | 0.0 | 0.00 | 0.00 | 0.00 | 89 | 1015.6 |
| 20260510112127 | 16 | 23 | 0.0 | 0.0 | 0.00 | 0.00 | 0.00 | 89 | 1015.5 |
| 20260510111624 | 16 | 17 | 0.0 | 0.0 | 0.00 | 0.00 | 0.00 | 89 | 1015.4 |
| 20260510111120 | 16 | 24 | 0.0 | 0.0 | 0.00 | 0.00 | 0.00 | 89 | 1015.4 |
| 20260510110616 | 16 | 45 | 0.0 | 0.0 | 0.00 | 0.00 | 0.00 | 89 | 1015.4 |
| 20260510110113 | 16 | 53 | 0.0 | 0.0 | 0.00 | 0.00 | 0.00 | 89 | 1014.9 |
| 20260510105608 | 16 | 24 | 0.0 | 0.0 | 0.00 | 0.00 | 0.00 | 89 | 1015.1 |
| 20260510105103 | 16 | 46 | 0.0 | 0.0 | 0.00 | 0.00 | 0.00 | 89 | 1015.0 |
| 20260510104600 | 15 | 30 | 0.0 | 0.0 | 0.00 | 0.00 | 0.00 | 89 | 1014.8 |
| 20260510104056 | 15 | 24 | 0.0 | 0.0 | 0.00 | 0.00 | 0.00 | 89 | 1014.7 |
| 20260510103553 | 16 | 29 | 0.0 | 0.0 | 0.00 | 0.00 | 0.00 | 89 | 1014.6 |
| 20260510103049 | 16 | 34 | 0.0 | 0.0 | 0.00 | 0.00 | 0.00 | 89 | 1014.7 |
| 20260510102545 | 16 | 50 | 0.0 | 0.0 | 0.00 | 0.00 | 0.00 | 89 | 1014.8 |
| 20260510102041 | 16 | 44 | 0.0 | 0.0 | 0.00 | 0.00 | 0.00 | 89 | 1014.6 |
| 20260510101539 | 16 | 44 | 0.0 | 0.0 | 0.00 | 0.00 | 0.00 | 89 | 1014.5 |
| 20260510101038 | 16 | 36 | 0.0 | 0.0 | 0.00 | 0.00 | 0.00 | 89 | 1014.6 |
| 20260510100533 | 16 | 32 | 0.0 | 0.0 | 0.00 | 0.00 | 0.00 | 89 | 1014.4 |
| 20260510100031 | 16 | 34 | 0.0 | 0.0 | 0.00 | 0.00 | 0.00 | 89 | 1014.7 |
| 20260510095526 | 16 | 37 | 0.0 | 0.0 | 0.00 | 0.00 | 0.00 | 89 | 1014.7 |
| 20260510095025 | 16 | 27 | 0.0 | 0.0 | 0.00 | 0.00 | 0.00 | 89 | 1014.6 |
| 20260510094520 | 16 | 27 | 0.0 | 0.0 | 0.00 | 0.00 | 0.00 | 89 | 1014.6 |
| 20260510094016 | 16 | 42 | 0.0 | 0.0 | 0.00 | 0.00 | 0.00 | 89 | 1014.3 |
| 20260510093512 | 16 | 41 | 0.0 | 0.0 | 0.00 | 0.00 | 0.00 | 89 | 1014.4 |
| 20260510093009 | 16 | 29 | 0.0 | 0.0 | 0.00 | 0.00 | 0.00 | 89 | 1014.8 |
| 20260510092506 | 16 | 29 | 0.0 | 0.0 | 0.00 | 0.00 | 0.00 | 89 | 1014.6 |
| 20260510092006 | 16 | 30 | 0.0 | 0.0 | 0.00 | 0.00 | 0.00 | 89 | 1014.4 |
| 20260510091503 | 16 | 23 | 0.0 | 0.0 | 0.00 | 0.00 | 0.00 | 89 | 1014.7 |
| 20260510090959 | 16 | 26 | 0.0 | 0.0 | 0.00 | 0.00 | 0.00 | 89 | 1014.4 |
| 20260510090456 | 16 | 27 | 0.0 | 0.0 | 0.00 | 0.00 | 0.00 | 89 | 1014.4 |
| 20260510085951 | 16 | 23 | 0.0 | 0.0 | 0.00 | 0.00 | 0.00 | 89 | 1014.2 |
| 20260510085447 | 16 | 20 | 0.0 | 0.0 | 0.00 | 0.00 | 0.00 | 89 | 1014.1 |
| 20260510084942 | 16 | 23 | 0.0 | 0.0 | 0.00 | 0.00 | 0.00 | 89 | 1013.9 |
| 20260510084440 | 16 | 25 | 0.0 | 0.0 | 0.00 | 0.00 | 0.00 | 89 | 1014.0 |
| 20260510083936 | 16 | 26 | 0.0 | 0.0 | 0.00 | 0.00 | 0.00 | 89 | 1013.8 |
| 20260510083433 | 16 | 44 | 0.0 | 0.0 | 0.00 | 0.00 | 0.00 | 89 | 1013.9 |
| 20260510082928 | 16 | 48 | 0.0 | 0.0 | 0.00 | 0.00 | 0.00 | 89 | 1013.8 |
| 20260510082426 | 16 | 64 | 1.6 | 1.6 | 0.00 | 0.00 | 0.00 | 89 | 1013.4 |
| 20260510081925 | 16 | 43 | 0.0 | 0.0 | 0.00 | 0.00 | 0.00 | 89 | 1013.3 |
| 20260510081421 | 16 | 34 | 0.0 | 0.0 | 0.00 | 0.00 | 0.00 | 89 | 1013.5 |
| 20260510080918 | 17 | 53 | 0.0 | 0.0 | 0.00 | 0.00 | 0.00 | 89 | 1013.6 |
| 20260510080416 | 17 | 49 | 0.0 | 0.0 | 0.00 | 0.00 | 0.00 | 89 | 1013.7 |
| 20260510075914 | 17 | 128 | 1.6 | 3.2 | 0.00 | 0.00 | 0.00 | 89 | 1013.6 |
| 20260510075412 | 17 | 123 | 1.6 | 3.2 | 0.00 | 0.00 | 0.00 | 89 | 1013.7 |
| 20260510074908 | 17 | 57 | 0.0 | 0.0 | 0.00 | 0.00 | 0.00 | 89 | 1013.5 |
| 20260510074405 | 17 | 24 | 0.0 | 0.0 | 0.00 | 0.00 | 0.00 | 89 | 1013.5 |
| 20260510073902 | 17 | 24 | 0.0 | 0.0 | 0.00 | 0.00 | 0.00 | 89 | 1013.5 |
| 20260510073357 | 17 | 30 | 0.0 | 0.0 | 0.00 | 0.00 | 0.00 | 89 | 1013.3 |
| 20260510072853 | 17 | 42 | 0.0 | 0.0 | 0.00 | 0.00 | 0.00 | 89 | 1013.2 |
| 20260510072350 | 17 | 46 | 0.0 | 0.0 | 0.00 | 0.00 | 0.00 | 89 | 1013.1 |
| 20260510071846 | 17 | 16 | 0.0 | 0.0 | 0.00 | 0.00 | 0.00 | 89 | 1013.5 |
| 20260510071343 | 17 | 16 | 0.0 | 0.0 | 0.00 | 0.00 | 0.00 | 89 | 1013.3 |
| 20260510070842 | 17 | 29 | 0.0 | 0.0 | 0.00 | 0.00 | 0.00 | 89 | 1013.3 |
| 20260510070339 | 17 | 10 | 0.0 | 0.0 | 0.00 | 0.00 | 0.00 | 89 | 1013.4 |
| 20260510065838 | 17 | 6 | 0.0 | 0.0 | 0.00 | 0.00 | 0.00 | 89 | 1013.2 |
| 20260510065335 | 17 | 23 | 0.0 | 0.0 | 0.00 | 0.00 | 0.00 | 89 | 1013.3 |
| 20260510064832 | 17 | 25 | 0.0 | 0.0 | 0.00 | 0.00 | 0.00 | 89 | 1013.1 |
| 20260510064330 | 17 | 15 | 0.0 | 0.0 | 0.00 | 0.00 | 0.00 | 89 | 1013.1 |
| 20260510063826 | 17 | 30 | 0.0 | 0.0 | 0.00 | 0.00 | 0.00 | 89 | 1013.2 |
| 20260510063323 | 17 | 37 | 0.0 | 0.0 | 0.00 | 0.00 | 0.00 | 89 | 1013.2 |
| 20260510062819 | 17 | 25 | 0.0 | 0.0 | 0.00 | 0.00 | 0.00 | 89 | 1013.4 |
| 20260510062315 | 17 | 23 | 0.0 | 0.0 | 0.00 | 0.00 | 0.00 | 89 | 1013.3 |
| 20260510061816 | 17 | 24 | 0.0 | 0.0 | 0.00 | 0.00 | 0.00 | 89 | 1013.3 |
| 20260510061313 | 17 | 7 | 1.6 | 1.6 | 0.00 | 0.00 | 0.00 | 89 | 1013.4 |
| 20260510060809 | 17 | 9 | 0.0 | 0.0 | 0.00 | 0.00 | 0.00 | 89 | 1013.6 |
| 20260510060307 | 17 | 329 | 1.6 | 3.2 | 0.00 | 0.00 | 0.00 | 89 | 1013.3 |
| 20260510055804 | 17 | 63 | 1.6 | 1.6 | 0.00 | 0.00 | 0.00 | 89 | 1013.2 |
| 20260510055306 | 17 | 37 | 0.0 | 0.0 | 0.00 | 0.00 | 0.00 | 89 | 1013.3 |
| 20260510054801 | 17 | 43 | 0.0 | 0.0 | 0.00 | 0.00 | 0.00 | 89 | 1013.4 |
| 20260510054257 | 17 | 70 | 1.6 | 1.6 | 0.00 | 0.00 | 0.00 | 89 | 1013.3 |
| 20260510053752 | 17 | 63 | 0.0 | 1.6 | 0.00 | 0.00 | 0.00 | 89 | 1013.1 |
| 20260510053248 | 17 | 91 | 1.6 | 3.2 | 0.00 | 0.00 | 0.00 | 89 | 1013.6 |
| 20260510052744 | 17 | 20 | 0.0 | 0.0 | 0.00 | 0.00 | 0.00 | 89 | 1013.7 |
| 20260510052240 | 17 | 38 | 0.0 | 0.0 | 0.00 | 0.00 | 0.00 | 89 | 1013.2 |
| 20260510051736 | 17 | 48 | 0.0 | 0.0 | 0.00 | 0.00 | 0.00 | 89 | 1013.6 |
| 20260510051233 | 17 | 49 | 0.0 | 0.0 | 0.00 | 0.00 | 0.00 | 89 | 1013.7 |
| 20260510050730 | 17 | 56 | 0.0 | 0.0 | 0.00 | 0.00 | 0.00 | 89 | 1013.9 |
| 20260510050227 | 17 | 45 | 0.0 | 0.0 | 0.00 | 0.00 | 0.00 | 89 | 1013.9 |
| 20260510045724 | 17 | 53 | 0.0 | 0.0 | 0.00 | 1.70 | 1.70 | 89 | 1014.1 |
| 20260510045220 | 18 | 49 | 0.0 | 0.0 | 0.00 | 1.70 | 1.70 | 89 | 1014.3 |
| 20260510044716 | 18 | 31 | 0.0 | 0.0 | 0.00 | 1.70 | 1.70 | 89 | 1014.2 |
| 20260510044215 | 18 | 21 | 0.0 | 0.0 | 0.00 | 1.70 | 1.70 | 89 | 1014.3 |
| 20260510043710 | 18 | 15 | 0.0 | 0.0 | 0.00 | 1.70 | 1.70 | 89 | 1014.0 |
| 20260510043207 | 18 | 25 | 0.0 | 0.0 | 0.00 | 1.70 | 1.70 | 89 | 1014.5 |
| 20260510042704 | 18 | 323 | 3.2 | 3.2 | 0.00 | 1.70 | 1.70 | 89 | 1014.4 |
| 20260510042200 | 18 | 103 | 0.0 | 1.6 | 0.00 | 1.70 | 1.70 | 89 | 1014.4 |
| 20260510041657 | 18 | 120 | 1.6 | 1.6 | 0.00 | 1.70 | 1.70 | 89 | 1014.1 |
| 20260510041154 | 18 | 52 | 0.0 | 0.0 | 0.00 | 1.70 | 1.70 | 89 | 1014.0 |
| 20260510040651 | 18 | 33 | 0.0 | 0.0 | 0.00 | 1.70 | 1.70 | 89 | 1014.1 |
| 20260510040148 | 18 | 50 | 0.0 | 0.0 | 0.00 | 1.70 | 1.70 | 89 | 1014.2 |
| 20260510035643 | 18 | 57 | 0.0 | 0.0 | 0.00 | 1.70 | 1.70 | 89 | 1014.3 |
| 20260510035139 | 18 | 45 | 0.0 | 0.0 | 0.00 | 1.70 | 1.70 | 89 | 1014.4 |
| 20260510034636 | 18 | 35 | 0.0 | 0.0 | 0.00 | 1.70 | 1.70 | 89 | 1014.4 |
| 20260510034133 | 18 | 48 | 0.0 | 0.0 | 0.00 | 1.70 | 1.70 | 89 | 1014.4 |
| 20260510033629 | 18 | 61 | 0.0 | 1.6 | 0.00 | 1.70 | 1.70 | 89 | 1014.4 |
| 20260510033127 | 18 | 20 | 0.0 | 0.0 | 0.00 | 1.70 | 1.70 | 89 | 1014.8 |
| 20260510032623 | 18 | 18 | 0.0 | 0.0 | 0.00 | 1.70 | 1.70 | 89 | 1014.6 |
| 20260510032119 | 18 | 0 | 0.0 | 1.6 | 0.00 | 1.70 | 1.70 | 89 | 1014.7 |
| 20260510031613 | 18 | 24 | 0.0 | 0.0 | 0.00 | 1.70 | 1.70 | 89 | 1014.4 |
| 20260510031111 | 18 | 37 | 0.0 | 0.0 | 0.00 | 1.70 | 1.70 | 89 | 1014.5 |
| 20260510030605 | 18 | 37 | 0.0 | 0.0 | 0.00 | 1.70 | 1.70 | 89 | 1014.3 |
| 20260510030103 | 18 | 30 | 0.0 | 0.0 | 0.00 | 1.70 | 1.70 | 89 | 1014.5 |
| 20260510025600 | 18 | 24 | 0.0 | 0.0 | 0.00 | 1.70 | 1.70 | 89 | 1014.5 |
| 20260510025058 | 18 | 24 | 0.0 | 0.0 | 0.00 | 1.70 | 1.70 | 89 | 1014.3 |
| 20260510024554 | 18 | 7 | 0.0 | 0.0 | 0.00 | 1.70 | 1.70 | 89 | 1014.4 |
| 20260510024050 | 18 | 58 | 0.0 | 1.6 | 0.00 | 1.70 | 1.70 | 89 | 1014.1 |
| 20260510023547 | 18 | 30 | 0.0 | 0.0 | 0.00 | 1.70 | 1.70 | 89 | 1014.1 |
| 20260510023044 | 18 | 76 | 1.6 | 1.6 | 0.00 | 1.70 | 1.70 | 89 | 1013.8 |
| 20260510022543 | 18 | 344 | 0.0 | 0.0 | 0.00 | 1.70 | 1.70 | 89 | 1014.0 |
| 20260510022038 | 18 | 137 | 4.8 | 4.8 | 0.00 | 1.70 | 1.70 | 89 | 1013.4 |
| 20260510021535 | 18 | 143 | 4.8 | 4.8 | 0.00 | 1.70 | 1.70 | 89 | 1013.5 |
| 20260510021033 | 18 | 102 | 3.2 | 3.2 | 0.00 | 1.70 | 1.70 | 89 | 1013.7 |
| 20260510020532 | 18 | 87 | 1.6 | 3.2 | 0.00 | 1.70 | 1.70 | 89 | 1014.1 |
| 20260510020028 | 18 | 22 | 0.0 | 0.0 | 0.00 | 1.70 | 1.70 | 89 | 1013.9 |
| 20260510015524 | 18 | 8 | 0.0 | 0.0 | 0.00 | 1.70 | 1.70 | 89 | 1014.1 |
| 20260510015020 | 18 | 100 | 4.8 | 4.8 | 0.00 | 1.70 | 1.70 | 89 | 1013.9 |
| 20260510014517 | 18 | 135 | 4.8 | 4.8 | 0.00 | 1.70 | 1.70 | 89 | 1013.7 |
| 20260510014014 | 18 | 104 | 3.2 | 3.2 | 0.00 | 1.70 | 1.70 | 89 | 1013.7 |
| 20260510013508 | 18 | 119 | 3.2 | 3.2 | 0.00 | 1.70 | 1.70 | 89 | 1013.6 |
| 20260510013004 | 18 | 141 | 4.8 | 4.8 | 0.00 | 1.70 | 1.70 | 89 | 1013.6 |
| 20260510012459 | 18 | 108 | 3.2 | 3.2 | 0.00 | 1.70 | 1.70 | 89 | 1013.9 |
| 20260510011954 | 18 | 58 | 0.0 | 1.6 | 0.00 | 1.70 | 1.70 | 89 | 1013.6 |
| 20260510011449 | 18 | 75 | 1.6 | 3.2 | 0.00 | 1.70 | 1.70 | 89 | 1013.8 |
| 20260510010945 | 18 | 46 | 0.0 | 0.0 | 0.00 | 1.70 | 1.70 | 89 | 1013.8 |
| 20260510010443 | 18 | 23 | 0.0 | 0.0 | 0.00 | 1.70 | 1.70 | 89 | 1013.8 |
| 20260510005940 | 18 | 20 | 0.0 | 0.0 | 0.00 | 1.70 | 1.70 | 89 | 1013.8 |
| 20260510005435 | 18 | 41 | 0.0 | 0.0 | 0.00 | 1.70 | 1.70 | 89 | 1013.5 |
| 20260510004933 | 18 | 63 | 0.0 | 1.6 | 0.00 | 1.70 | 1.70 | 89 | 1013.5 |
| 20260510004430 | 18 | 41 | 0.0 | 0.0 | 0.00 | 1.70 | 1.70 | 89 | 1013.3 |
| 20260510003928 | 18 | 60 | 0.0 | 1.6 | 0.00 | 1.70 | 1.70 | 89 | 1013.4 |
| 20260510003425 | 18 | 47 | 0.0 | 0.0 | 0.00 | 1.70 | 1.70 | 89 | 1013.2 |
| 20260510002924 | 18 | 7 | 0.0 | 0.0 | 0.00 | 1.70 | 1.70 | 89 | 1013.1 |
| 20260510002421 | 18 | 334 | 1.6 | 1.6 | 0.00 | 1.70 | 1.70 | 89 | 1013.1 |
| 20260510001918 | 18 | 8 | 0.0 | 0.0 | 0.00 | 1.70 | 1.70 | 89 | 1013.0 |
| 20260510001415 | 18 | 97 | 1.6 | 1.6 | 0.00 | 1.70 | 1.70 | 89 | 1012.9 |
| 20260510000912 | 18 | 71 | 0.0 | 1.6 | 0.00 | 1.70 | 1.70 | 89 | 1012.8 |
| 20260510000411 | 18 | 122 | 3.2 | 3.2 | 0.00 | 1.70 | 1.70 | 89 | 1012.9 |
| 20260509235905 | 19 | 82 | 1.6 | 1.6 | 0.00 | 1.70 | 1.70 | 89 | 1012.8 |
| 20260509235402 | 19 | 53 | 0.0 | 0.0 | 0.00 | 1.70 | 1.70 | 89 | 1013.1 |
| 20260509234858 | 19 | 62 | 0.0 | 1.6 | 0.00 | 1.70 | 1.70 | 89 | 1013.2 |
| 20260509234356 | 19 | 29 | 0.0 | 0.0 | 0.00 | 1.70 | 1.70 | 89 | 1013.2 |
| 20260509233853 | 19 | 18 | 0.0 | 0.0 | 0.00 | 1.70 | 1.70 | 89 | 1013.0 |
| 20260509233351 | 19 | 23 | 0.0 | 0.0 | 0.00 | 1.70 | 1.70 | 89 | 1013.2 |
| 20260509232846 | 19 | 20 | 0.0 | 0.0 | 0.00 | 1.70 | 1.70 | 89 | 1013.1 |
| 20260509232344 | 19 | 23 | 0.0 | 0.0 | 0.00 | 1.70 | 1.70 | 89 | 1012.9 |
| 20260509231840 | 19 | 23 | 0.0 | 0.0 | 0.00 | 1.70 | 1.70 | 89 | 1012.8 |
| 20260509231337 | 19 | 17 | 0.0 | 0.0 | 0.00 | 1.70 | 1.70 | 89 | 1013.0 |
| 20260509230835 | 19 | 50 | 0.0 | 0.0 | 0.00 | 1.70 | 1.70 | 89 | 1012.6 |
| 20260509230332 | 19 | 71 | 1.6 | 1.6 | 0.00 | 1.70 | 1.70 | 89 | 1012.9 |
| 20260509225827 | 19 | 51 | 0.0 | 0.0 | 0.00 | 1.70 | 1.70 | 89 | 1012.5 |
| 20260509225324 | 19 | 1 | 0.0 | 0.0 | 0.00 | 1.70 | 1.70 | 89 | 1012.6 |
| 20260509224820 | 19 | 13 | 0.0 | 0.0 | 0.00 | 1.70 | 1.70 | 89 | 1012.9 |
| 20260509224316 | 19 | 4 | 0.0 | 0.0 | 0.00 | 1.70 | 1.70 | 89 | 1012.5 |
| 20260509223813 | 19 | 3 | 0.0 | 1.6 | 0.00 | 1.70 | 1.70 | 89 | 1012.6 |
| 20260509223310 | 19 | 321 | 1.6 | 1.6 | 0.00 | 1.70 | 1.70 | 89 | 1012.2 |
| 20260509222807 | 19 | 321 | 0.0 | 1.6 | 0.00 | 1.70 | 1.70 | 89 | 1012.3 |
| 20260509222306 | 19 | 10 | 0.0 | 1.6 | 0.00 | 1.70 | 1.70 | 89 | 1012.6 |
| 20260509221758 | 19 | 5 | 0.0 | 0.0 | 0.00 | 1.70 | 1.70 | 89 | 1012.3 |
| 20260509221255 | 19 | 4 | 0.0 | 1.6 | 0.00 | 1.70 | 1.70 | 89 | 1012.3 |
| 20260509220750 | 19 | 270 | 1.6 | 3.2 | 0.00 | 1.70 | 1.70 | 89 | 1012.1 |
| 20260509220247 | 18 | 74 | 1.6 | 3.2 | 0.00 | 1.70 | 1.70 | 89 | 1012.1 |
| 20260509215742 | 18 | 77 | 1.6 | 1.6 | 0.00 | 1.70 | 1.70 | 89 | 1012.2 |
| 20260509215240 | 19 | 60 | 1.6 | 1.6 | 0.00 | 1.70 | 1.70 | 89 | 1012.0 |
| 20260509214736 | 19 | 34 | 0.0 | 0.0 | 0.00 | 1.70 | 1.70 | 89 | 1011.8 |
| 20260509214234 | 19 | 35 | 0.0 | 1.6 | 0.00 | 1.70 | 1.70 | 89 | 1012.0 |
| 20260509213730 | 19 | 51 | 1.6 | 1.6 | 0.00 | 1.70 | 1.70 | 89 | 1011.8 |
| 20260509213226 | 19 | 71 | 1.6 | 1.6 | 0.00 | 1.70 | 1.70 | 89 | 1011.6 |
| 20260509212724 | 19 | 82 | 1.6 | 1.6 | 0.00 | 1.70 | 1.70 | 89 | 1011.8 |
| 20260509212221 | 19 | 7 | 0.0 | 1.6 | 0.00 | 1.70 | 1.70 | 89 | 1011.7 |
| 20260509211717 | 19 | 10 | 0.0 | 1.6 | 0.00 | 1.70 | 1.70 | 89 | 1011.6 |
| 20260509211213 | 19 | 121 | 4.8 | 4.8 | 0.00 | 1.70 | 1.70 | 89 | 1011.7 |
| 20260509210710 | 19 | 7 | 0.0 | 1.6 | 0.00 | 1.70 | 1.70 | 89 | 1011.9 |
| 20260509210207 | 18 | 58 | 1.6 | 1.6 | 0.00 | 1.70 | 1.70 | 89 | 1011.6 |
| 20260509205707 | 18 | 122 | 3.2 | 3.2 | 0.00 | 1.70 | 1.70 | 89 | 1011.4 |
| 20260509205206 | 18 | 172 | 1.6 | 3.2 | 0.00 | 1.70 | 1.70 | 89 | 1011.6 |
| 20260509204703 | 18 | 115 | 4.8 | 8.0 | 0.00 | 1.70 | 1.70 | 89 | 1011.2 |